Wetterdaten: Woche 06.03.17 - 12.03.17 (KW10)
Datum Zeit Temp. A. Feuchte A. Luftdruck Regen Wind Richtung Sonnenschein ET UV Solar Taupunkt Windchill Windben Empfang
06.03.2017 00:00 2,4 C 91 % 1004,2 hPa 0,2 l/m 8,7 km/h (2 Bft) SW 0,00 h 0,000 mm 0,0 UV-I 0 W/m 1,1 C 0,3 C 12,7 km/h (3 Bft) 97,59 %
06.03.2017 01:00 3,3 C 89 % 1004,5 hPa 0,0 l/m 5,6 km/h (1 Bft) S-SW 0,00 h 0,000 mm 0,0 UV-I 0 W/m 1,7 C 3,2 C 9,2 km/h (2 Bft) 95,24 %
06.03.2017 02:00 4,3 C 86 % 1004,6 hPa 0,0 l/m 7,9 km/h (2 Bft) SW 0,00 h 0,000 mm 0,0 UV-I 0 W/m 2,1 C 2,8 C 12,2 km/h (3 Bft) 96,92 %
06.03.2017 03:00 4,5 C 86 % 1005,0 hPa 0,2 l/m 12,4 km/h (3 Bft) W-SW 0,00 h 0,025 mm 0,0 UV-I 0 W/m 2,3 C 0,3 C 18,7 km/h (3 Bft) 97,61 %
06.03.2017 04:00 4,9 C 84 % 1005,4 hPa 0,0 l/m 16,7 km/h (3 Bft) W-SW 0,00 h 0,026 mm 0,0 UV-I 0 W/m 2,5 C -1,8 C 24,2 km/h (4 Bft) 96,51 %
06.03.2017 05:00 5,0 C 82 % 1005,9 hPa 0,0 l/m 15,9 km/h (3 Bft) SW 0,00 h 0,025 mm 0,0 UV-I 0 W/m 2,1 C -1,3 C 23,2 km/h (4 Bft) 97,69 %
06.03.2017 06:00 4,9 C 78 % 1005,8 hPa 0,0 l/m 15,0 km/h (3 Bft) W-SW 0,07 h 0,026 mm 0,0 UV-I 10 W/m 1,3 C -1,1 C 21,4 km/h (4 Bft) 94,89 %
06.03.2017 07:00 5,6 C 73 % 1006,0 hPa 0,0 l/m 15,0 km/h (3 Bft) W-SW 0,00 h 0,025 mm 0,0 UV-I 47 W/m 1,1 C -0,1 C 22,8 km/h (4 Bft) 97,64 %
06.03.2017 08:00 6,2 C 69 % 1005,8 hPa 0,0 l/m 18,8 km/h (3 Bft) W-SW 0,48 h 0,051 mm 0,5 UV-I 197 W/m 0,9 C -1,1 C 27,4 km/h (4 Bft) 95,99 %
06.03.2017 09:00 7,6 C 61 % 1005,7 hPa 0,0 l/m 19,2 km/h (3 Bft) W-SW 0,98 h 0,127 mm 0,8 UV-I 400 W/m 0,6 C 0,5 C 28,9 km/h (5 Bft) 98,04 %
06.03.2017 10:00 8,5 C 57 % 1005,3 hPa 0,0 l/m 20,2 km/h (4 Bft) W-SW 0,52 h 0,254 mm 0,9 UV-I 308 W/m 0,4 C 1,4 C 30,3 km/h (5 Bft) 96,51 %
06.03.2017 11:00 8,4 C 62 % 1005,0 hPa 0,0 l/m 21,2 km/h (4 Bft) W-SW 0,70 h 0,228 mm 1,4 UV-I 489 W/m 1,5 C 0,9 C 32,5 km/h (5 Bft) 95,92 %
06.03.2017 12:00 7,8 C 68 % 1004,4 hPa 0,0 l/m 17,6 km/h (3 Bft) W-SW 0,75 h 0,280 mm 1,3 UV-I 399 W/m 2,1 C 1,6 C 27,1 km/h (4 Bft) 95,78 %
06.03.2017 13:00 9,3 C 58 % 1003,0 hPa 0,0 l/m 14,4 km/h (3 Bft) W-SW 0,93 h 0,228 mm 1,3 UV-I 436 W/m 1,6 C 4,7 C 22,5 km/h (4 Bft) 97,10 %
06.03.2017 14:00 9,4 C 62 % 1002,1 hPa 0,0 l/m 6,5 km/h (2 Bft) W-SW 0,87 h 0,254 mm 1,0 UV-I 420 W/m 2,4 C 8,8 C 11,9 km/h (2 Bft) 98,46 %
06.03.2017 15:00 8,9 C 63 % 1001,3 hPa 0,0 l/m 3,4 km/h (1 Bft) N 0,27 h 0,229 mm 0,6 UV-I 196 W/m 2,2 C 8,9 C 8,2 km/h (2 Bft) 98,16 %
06.03.2017 16:00 7,7 C 69 % 1000,8 hPa 0,0 l/m 6,4 km/h (2 Bft) NO 0,00 h 0,102 mm 0,0 UV-I 68 W/m 2,5 C 6,9 C 10,1 km/h (2 Bft) 99,37 %
06.03.2017 17:00 7,0 C 73 % 1000,5 hPa 0,0 l/m 6,4 km/h (2 Bft) NO 0,17 h 0,050 mm 0,0 UV-I 27 W/m 2,5 C 6,6 C 9,4 km/h (2 Bft) 95,60 %
06.03.2017 18:00 5,6 C 76 % 1000,2 hPa 0,0 l/m 5,1 km/h (1 Bft) NO 0,00 h 0,026 mm 0,0 UV-I 5 W/m 1,7 C 5,2 C 7,7 km/h (2 Bft) 95,71 %
06.03.2017 19:00 4,7 C 79 % 1000,1 hPa 0,0 l/m 3,2 km/h (1 Bft) NO 0,00 h 0,025 mm 0,0 UV-I 0 W/m 1,4 C 4,7 C 5,2 km/h (1 Bft) 96,15 %
06.03.2017 20:00 4,3 C 80 % 1000,0 hPa 0,0 l/m 0,8 km/h (0 Bft) N 0,00 h 0,000 mm 0,0 UV-I 0 W/m 1,1 C 4,3 C 2,7 km/h (1 Bft) 97,52 %
06.03.2017 21:00 3,7 C 82 % 1000,4 hPa 0,0 l/m 0,6 km/h (0 Bft) NO 0,00 h 0,000 mm 0,0 UV-I 0 W/m 0,9 C 3,7 C 1,9 km/h (1 Bft) 94,58 %
06.03.2017 22:00 3,3 C 85 % 1001,1 hPa 0,0 l/m 4,0 km/h (1 Bft) SW 0,00 h 0,000 mm 0,0 UV-I 0 W/m 1,0 C 3,2 C 6,1 km/h (2 Bft) 97,48 %
06.03.2017 23:00 3,7 C 85 % 1002,0 hPa 0,0 l/m 5,3 km/h (1 Bft) S-SW 0,00 h 0,000 mm 0,0 UV-I 0 W/m 1,4 C 3,6 C 7,6 km/h (2 Bft) 97,29 %
07.03.2017 00:00 4,3 C 84 % 1003,0 hPa 0,2 l/m 9,0 km/h (2 Bft) SW 0,00 h 0,000 mm 0,0 UV-I 0 W/m 1,9 C 2,1 C 13,1 km/h (3 Bft) 97,25 %
07.03.2017 01:00 4,1 C 89 % 1004,1 hPa 0,4 l/m 6,2 km/h (2 Bft) SW 0,00 h 0,025 mm 0,0 UV-I 0 W/m 2,4 C 3,8 C 9,8 km/h (2 Bft) 96,60 %
07.03.2017 02:00 4,4 C 90 % 1004,7 hPa 0,4 l/m 14,7 km/h (3 Bft) W-SW 0,00 h 0,000 mm 0,0 UV-I 0 W/m 2,9 C -1,4 C 21,9 km/h (4 Bft) 95,86 %
07.03.2017 03:00 4,4 C 91 % 1005,3 hPa 0,0 l/m 12,2 km/h (2 Bft) W-SW 0,00 h 0,026 mm 0,0 UV-I 0 W/m 3,0 C -0,0 C 18,3 km/h (3 Bft) 98,09 %
07.03.2017 04:00 3,9 C 93 % 1006,0 hPa 1,0 l/m 11,7 km/h (2 Bft) W 0,00 h 0,000 mm 0,0 UV-I 0 W/m 2,8 C -0,3 C 18,1 km/h (3 Bft) 97,11 %
07.03.2017 05:00 3,4 C 94 % 1006,7 hPa 0,0 l/m 14,9 km/h (3 Bft) W-SW 0,00 h 0,000 mm 0,0 UV-I 0 W/m 2,5 C -2,6 C 22,5 km/h (4 Bft) 97,91 %
07.03.2017 06:00 3,4 C 92 % 1007,4 hPa 0,0 l/m 15,9 km/h (3 Bft) SW 0,03 h 0,000 mm 0,0 UV-I 13 W/m 2,2 C -3,3 C 23,9 km/h (4 Bft) 94,96 %
07.03.2017 07:00 3,2 C 92 % 1008,4 hPa 0,0 l/m 14,1 km/h (3 Bft) SW 0,23 h 0,025 mm 0,0 UV-I 60 W/m 2,0 C -2,6 C 21,3 km/h (4 Bft) 97,86 %
07.03.2017 08:00 3,6 C 91 % 1009,5 hPa 0,0 l/m 14,3 km/h (3 Bft) SW 0,10 h 0,026 mm 0,0 UV-I 84 W/m 2,3 C -2,3 C 21,5 km/h (4 Bft) 96,39 %
07.03.2017 09:00 3,6 C 91 % 1010,1 hPa 0,0 l/m 11,9 km/h (2 Bft) SW 0,00 h 0,050 mm 0,0 UV-I 58 W/m 2,3 C -0,7 C 18,3 km/h (3 Bft) 96,74 %
07.03.2017 10:00 4,6 C 89 % 1010,7 hPa 0,0 l/m 14,2 km/h (3 Bft) SW 0,00 h 0,026 mm 0,5 UV-I 133 W/m 3,0 C -0,9 C 21,9 km/h (4 Bft) 93,01 %
07.03.2017 11:00 6,1 C 80 % 1010,9 hPa 0,0 l/m 16,5 km/h (3 Bft) W-SW 0,37 h 0,076 mm 1,1 UV-I 287 W/m 3,0 C -0,2 C 25,7 km/h (4 Bft) 95,95 %
07.03.2017 12:00 5,9 C 83 % 1011,2 hPa 0,4 l/m 18,5 km/h (3 Bft) W-SW 0,10 h 0,152 mm 1,0 UV-I 235 W/m 3,2 C -1,2 C 28,5 km/h (4 Bft) 96,41 %
07.03.2017 13:00 5,9 C 83 % 1011,6 hPa 0,2 l/m 16,5 km/h (3 Bft) W 0,03 h 0,127 mm 0,8 UV-I 185 W/m 3,3 C -0,4 C 26,3 km/h (4 Bft) 97,81 %
07.03.2017 14:00 6,4 C 80 % 1011,9 hPa 0,0 l/m 16,4 km/h (3 Bft) W 0,27 h 0,102 mm 0,7 UV-I 195 W/m 3,2 C 0,2 C 25,7 km/h (4 Bft) 94,94 %
07.03.2017 15:00 6,3 C 80 % 1012,5 hPa 0,0 l/m 12,3 km/h (3 Bft) W-SW 0,17 h 0,127 mm 0,6 UV-I 116 W/m 3,2 C 2,5 C 22,4 km/h (4 Bft) 95,61 %
07.03.2017 16:00 5,8 C 84 % 1013,5 hPa 0,0 l/m 8,5 km/h (2 Bft) W-SW 0,00 h 0,076 mm 0,0 UV-I 44 W/m 3,3 C 3,9 C 14,6 km/h (3 Bft) 97,25 %
07.03.2017 17:00 5,3 C 85 % 1014,8 hPa 0,0 l/m 10,6 km/h (2 Bft) W-SW 0,00 h 0,026 mm 0,0 UV-I 24 W/m 3,1 C 2,1 C 16,5 km/h (3 Bft) 98,11 %
07.03.2017 18:00 5,0 C 87 % 1016,3 hPa 0,0 l/m 9,0 km/h (2 Bft) W-SW 0,00 h 0,025 mm 0,0 UV-I 0 W/m 2,9 C 2,9 C 13,4 km/h (3 Bft) 96,61 %
07.03.2017 19:00 4,2 C 90 % 1016,9 hPa 0,2 l/m 11,3 km/h (2 Bft) W-SW 0,00 h 0,025 mm 0,0 UV-I 0 W/m 2,7 C 0,4 C 16,6 km/h (3 Bft) 96,40 %
07.03.2017 20:00 3,8 C 92 % 1017,7 hPa 0,0 l/m 9,7 km/h (2 Bft) SW 0,00 h 0,000 mm 0,0 UV-I 0 W/m 2,6 C 1,1 C 15,6 km/h (3 Bft) 96,68 %
07.03.2017 21:00 3,6 C 92 % 1018,6 hPa 0,0 l/m 11,9 km/h (2 Bft) SW 0,00 h 0,000 mm 0,0 UV-I 0 W/m 2,4 C -0,6 C 18,2 km/h (3 Bft) 98,43 %
07.03.2017 22:00 3,3 C 91 % 1019,2 hPa 0,0 l/m 13,1 km/h (3 Bft) W-SW 0,00 h 0,000 mm 0,0 UV-I 0 W/m 2,0 C -1,8 C 19,4 km/h (3 Bft) 96,57 %
07.03.2017 23:00 3,3 C 92 % 1020,0 hPa 0,0 l/m 11,1 km/h (2 Bft) W-SW 0,00 h 0,000 mm 0,0 UV-I 0 W/m 2,1 C -0,5 C 16,7 km/h (3 Bft) 96,10 %
08.03.2017 00:00 3,3 C 92 % 1020,7 hPa 0,0 l/m 11,4 km/h (2 Bft) W-SW 0,00 h 0,000 mm 0,0 UV-I 0 W/m 2,0 C -0,8 C 17,1 km/h (3 Bft) 92,43 %
08.03.2017 01:00 3,4 C 91 % 1021,4 hPa 0,0 l/m 9,7 km/h (2 Bft) W-SW 0,00 h 0,000 mm 0,0 UV-I 0 W/m 2,2 C 0,6 C 14,5 km/h (3 Bft) 98,12 %
08.03.2017 02:00 3,6 C 92 % 1021,8 hPa 0,0 l/m 7,1 km/h (2 Bft) W-SW 0,00 h 0,000 mm 0,0 UV-I 0 W/m 2,4 C 2,8 C 11,3 km/h (2 Bft) 97,39 %
08.03.2017 03:00 3,7 C 92 % 1022,2 hPa 0,0 l/m 4,6 km/h (1 Bft) W-SW 0,00 h 0,000 mm 0,0 UV-I 0 W/m 2,5 C 3,7 C 7,1 km/h (2 Bft) 96,68 %
08.03.2017 04:00 3,8 C 92 % 1022,8 hPa 0,0 l/m 6,3 km/h (2 Bft) SW 0,00 h 0,000 mm 0,0 UV-I 0 W/m 2,6 C 3,3 C 10,4 km/h (2 Bft) 96,37 %
08.03.2017 05:00 3,8 C 91 % 1023,5 hPa 0,0 l/m 7,3 km/h (2 Bft) W-SW 0,00 h 0,000 mm 0,0 UV-I 0 W/m 2,5 C 2,9 C 12,0 km/h (2 Bft) 97,41 %
08.03.2017 06:00 3,6 C 92 % 1024,2 hPa 0,0 l/m 6,0 km/h (2 Bft) SW 0,07 h 0,000 mm 0,0 UV-I 14 W/m 2,4 C 3,4 C 8,5 km/h (2 Bft) 97,54 %
08.03.2017 07:00 3,7 C 92 % 1024,4 hPa 0,0 l/m 6,5 km/h (2 Bft) SW 0,00 h 0,000 mm 0,0 UV-I 52 W/m 2,6 C 3,2 C 10,0 km/h (2 Bft) 95,77 %
08.03.2017 08:00 4,7 C 88 % 1024,7 hPa 0,0 l/m 8,2 km/h (2 Bft) W-SW 0,00 h 0,025 mm 0,0 UV-I 106 W/m 2,8 C 3,0 C 12,8 km/h (3 Bft) 96,27 %
08.03.2017 09:00 5,0 C 86 % 1025,1 hPa 0,0 l/m 6,8 km/h (2 Bft) W-SW 0,00 h 0,051 mm 0,0 UV-I 104 W/m 2,8 C 4,2 C 11,0 km/h (2 Bft) 96,65 %
08.03.2017 10:00 5,8 C 83 % 1025,1 hPa 0,0 l/m 4,7 km/h (1 Bft) W-SW 0,47 h 0,051 mm 0,9 UV-I 295 W/m 3,1 C 5,6 C 8,3 km/h (2 Bft) 97,75 %
08.03.2017 11:00 6,5 C 79 % 1024,6 hPa 0,0 l/m 4,7 km/h (1 Bft) W 0,27 h 0,127 mm 1,2 UV-I 308 W/m 3,2 C 6,5 C 8,4 km/h (2 Bft) 97,57 %
08.03.2017 12:00 7,8 C 72 % 1024,2 hPa 0,0 l/m 4,3 km/h (1 Bft) SW 0,93 h 0,152 mm 1,8 UV-I 622 W/m 3,0 C 7,7 C 8,3 km/h (2 Bft) 97,19 %
08.03.2017 13:00 8,3 C 64 % 1023,8 hPa 0,0 l/m 5,0 km/h (1 Bft) S-SW 0,50 h 0,280 mm 1,3 UV-I 363 W/m 1,9 C 8,0 C 9,0 km/h (2 Bft) 96,31 %
08.03.2017 14:00 8,9 C 62 % 1023,4 hPa 0,0 l/m 3,9 km/h (1 Bft) SO 1,00 h 0,178 mm 1,0 UV-I 403 W/m 2,0 C 8,9 C 7,9 km/h (2 Bft) 94,87 %
08.03.2017 15:00 8,8 C 59 % 1022,7 hPa 0,0 l/m 2,7 km/h (1 Bft) SO 1,00 h 0,203 mm 0,5 UV-I 258 W/m 1,3 C 8,8 C 5,3 km/h (1 Bft) 97,40 %
08.03.2017 16:00 8,8 C 58 % 1021,8 hPa 0,0 l/m 3,3 km/h (1 Bft) SO 1,00 h 0,127 mm 0,0 UV-I 200 W/m 1,0 C 8,8 C 6,2 km/h (2 Bft) 96,70 %
08.03.2017 17:00 7,8 C 66 % 1021,2 hPa 0,0 l/m 4,6 km/h (1 Bft) O 0,27 h 0,101 mm 0,0 UV-I 34 W/m 1,7 C 7,8 C 6,8 km/h (2 Bft) 96,80 %
08.03.2017 18:00 6,7 C 72 % 1020,8 hPa 0,0 l/m 7,0 km/h (2 Bft) O 0,00 h 0,026 mm 0,0 UV-I 4 W/m 2,0 C 5,9 C 10,2 km/h (2 Bft) 98,12 %
08.03.2017 19:00 5,9 C 75 % 1020,2 hPa 0,0 l/m 5,7 km/h (1 Bft) O 0,00 h 0,025 mm 0,0 UV-I 0 W/m 1,9 C 5,7 C 9,0 km/h (2 Bft) 95,40 %
08.03.2017 20:00 5,4 C 79 % 1019,6 hPa 0,0 l/m 5,5 km/h (1 Bft) O 0,00 h 0,026 mm 0,0 UV-I 0 W/m 2,0 C 4,8 C 8,9 km/h (2 Bft) 97,83 %
08.03.2017 21:00 5,1 C 83 % 1019,8 hPa 0,0 l/m 4,4 km/h (1 Bft) SW 0,00 h 0,025 mm 0,0 UV-I 0 W/m 2,4 C 4,8 C 7,2 km/h (2 Bft) 96,54 %
08.03.2017 22:00 5,2 C 85 % 1019,9 hPa 0,8 l/m 6,4 km/h (2 Bft) W-SW 0,00 h 0,000 mm 0,0 UV-I 0 W/m 2,8 C 4,6 C 10,9 km/h (2 Bft) 98,13 %
08.03.2017 23:00 5,1 C 88 % 1019,4 hPa 1,0 l/m 3,5 km/h (1 Bft) S-SW 0,00 h 0,000 mm 0,0 UV-I 0 W/m 3,4 C 5,0 C 6,4 km/h (2 Bft) 95,27 %
09.03.2017 00:00 4,8 C 92 % 1018,5 hPa 1,4 l/m 4,8 km/h (1 Bft) S-SO 0,00 h 0,000 mm 0,0 UV-I 0 W/m 3,6 C 4,7 C 9,0 km/h (2 Bft) 97,18 %
09.03.2017 01:00 4,6 C 94 % 1018,1 hPa 1,8 l/m 3,6 km/h (1 Bft) NO 0,00 h 0,000 mm 0,0 UV-I 0 W/m 3,7 C 4,6 C 6,5 km/h (2 Bft) 96,85 %
09.03.2017 02:00 4,4 C 95 % 1017,6 hPa 1,4 l/m 1,2 km/h (1 Bft) O-SO 0,00 h 0,000 mm 0,0 UV-I 0 W/m 3,7 C 4,4 C 2,5 km/h (1 Bft) 98,51 %
09.03.2017 03:00 4,9 C 96 % 1017,2 hPa 1,0 l/m 1,9 km/h (1 Bft) SO 0,00 h 0,000 mm 0,0 UV-I 0 W/m 4,4 C 4,9 C 3,9 km/h (1 Bft) 96,00 %
09.03.2017 04:00 5,8 C 97 % 1017,6 hPa 0,6 l/m 3,7 km/h (1 Bft) W-SW 0,00 h 0,000 mm 0,0 UV-I 0 W/m 5,4 C 5,8 C 5,7 km/h (1 Bft) 96,30 %
09.03.2017 05:00 6,5 C 97 % 1017,8 hPa 0,2 l/m 6,7 km/h (2 Bft) SW 0,00 h 0,000 mm 0,0 UV-I 0 W/m 6,1 C 5,8 C 10,7 km/h (2 Bft) 97,11 %
09.03.2017 06:00 7,1 C 97 % 1018,2 hPa 0,0 l/m 9,0 km/h (2 Bft) W-SW 0,00 h 0,000 mm 0,0 UV-I 11 W/m 6,7 C 5,1 C 14,0 km/h (3 Bft) 96,51 %
09.03.2017 07:00 7,4 C 97 % 1018,8 hPa 0,2 l/m 10,7 km/h (2 Bft) SW 0,00 h 0,000 mm 0,0 UV-I 36 W/m 7,0 C 4,4 C 17,2 km/h (3 Bft) 94,72 %
09.03.2017 08:00 8,0 C 96 % 1019,1 hPa 0,4 l/m 8,9 km/h (2 Bft) W-SW 0,00 h 0,025 mm 0,0 UV-I 78 W/m 7,4 C 5,8 C 14,5 km/h (3 Bft) 94,81 %
09.03.2017 09:00 7,4 C 97 % 1019,1 hPa 1,0 l/m 1,5 km/h (1 Bft) W-NW 0,03 h 0,026 mm 0,6 UV-I 106 W/m 7,0 C 7,4 C 4,0 km/h (1 Bft) 96,76 %
09.03.2017 10:00 8,7 C 96 % 1019,1 hPa 0,0 l/m 2,5 km/h (1 Bft) NW 0,13 h 0,051 mm 0,8 UV-I 224 W/m 8,2 C 8,7 C 5,0 km/h (1 Bft) 96,75 %
09.03.2017 11:00 8,9 C 96 % 1019,2 hPa 0,6 l/m 2,2 km/h (1 Bft) W 0,00 h 0,101 mm 0,7 UV-I 171 W/m 8,3 C 8,9 C 4,7 km/h (1 Bft) 96,07 %
09.03.2017 12:00 9,9 C 92 % 1018,7 hPa 0,0 l/m 5,3 km/h (1 Bft) W-SW 0,27 h 0,076 mm 1,1 UV-I 290 W/m 8,7 C 9,8 C 9,5 km/h (2 Bft) 95,16 %
09.03.2017 13:00 10,4 C 89 % 1018,1 hPa 0,0 l/m 10,3 km/h (2 Bft) W-SW 0,00 h 0,127 mm 0,6 UV-I 159 W/m 8,7 C 7,9 C 16,1 km/h (3 Bft) 96,24 %
09.03.2017 14:00 9,9 C 89 % 1017,9 hPa 0,0 l/m 17,1 km/h (3 Bft) SW 0,00 h 0,077 mm 0,6 UV-I 161 W/m 8,1 C 4,2 C 25,8 km/h (4 Bft) 96,74 %
09.03.2017 15:00 9,5 C 87 % 1017,6 hPa 0,0 l/m 16,6 km/h (3 Bft) SW 0,00 h 0,101 mm 0,0 UV-I 78 W/m 7,5 C 4,0 C 25,4 km/h (4 Bft) 95,93 %
09.03.2017 16:00 8,8 C 87 % 1017,6 hPa 0,0 l/m 19,5 km/h (3 Bft) W-SW 0,00 h 0,051 mm 0,0 UV-I 35 W/m 6,8 C 2,0 C 29,2 km/h (5 Bft) 95,53 %
09.03.2017 17:00 7,9 C 90 % 1017,7 hPa 0,4 l/m 15,4 km/h (3 Bft) SW 0,00 h 0,051 mm 0,0 UV-I 15 W/m 6,4 C 2,5 C 23,3 km/h (4 Bft) 93,64 %
09.03.2017 18:00 7,3 C 90 % 1017,9 hPa 0,2 l/m 13,0 km/h (3 Bft) SW 0,00 h 0,025 mm 0,0 UV-I 2 W/m 5,9 C 3,0 C 19,7 km/h (3 Bft) 96,99 %
09.03.2017 19:00 7,2 C 91 % 1017,8 hPa 0,0 l/m 13,1 km/h (3 Bft) W-SW 0,00 h 0,026 mm 0,0 UV-I 0 W/m 5,9 C 2,8 C 20,3 km/h (4 Bft) 96,26 %
09.03.2017 20:00 7,2 C 92 % 1017,2 hPa 0,0 l/m 12,9 km/h (3 Bft) SW 0,00 h 0,025 mm 0,0 UV-I 0 W/m 5,9 C 2,9 C 20,6 km/h (4 Bft) 97,49 %
09.03.2017 21:00 7,2 C 93 % 1016,6 hPa 1,4 l/m 12,5 km/h (3 Bft) SW 0,00 h 0,000 mm 0,0 UV-I 0 W/m 6,1 C 3,2 C 19,0 km/h (3 Bft) 95,70 %
09.03.2017 22:00 7,4 C 94 % 1015,5 hPa 3,6 l/m 13,1 km/h (3 Bft) S-SW 0,00 h 0,000 mm 0,0 UV-I 0 W/m 6,5 C 3,1 C 19,9 km/h (4 Bft) 96,61 %
09.03.2017 23:00 7,9 C 93 % 1015,7 hPa 1,2 l/m 18,6 km/h (3 Bft) W-SW 0,00 h 0,000 mm 0,0 UV-I 0 W/m 6,8 C 1,4 C 29,1 km/h (5 Bft) 98,64 %
10.03.2017 00:00 7,9 C 93 % 1016,4 hPa 0,4 l/m 11,9 km/h (2 Bft) W-SW 0,00 h 0,000 mm 0,0 UV-I 0 W/m 6,9 C 4,3 C 19,3 km/h (3 Bft) 97,07 %
10.03.2017 01:00 7,2 C 91 % 1016,6 hPa 0,0 l/m 8,1 km/h (2 Bft) W-SW 0,00 h 0,000 mm 0,0 UV-I 0 W/m 5,8 C 5,8 C 12,5 km/h (3 Bft) 96,81 %
10.03.2017 02:00 7,0 C 89 % 1016,8 hPa 0,0 l/m 12,8 km/h (3 Bft) W-SW 0,00 h 0,000 mm 0,0 UV-I 0 W/m 5,3 C 2,7 C 22,8 km/h (4 Bft) 95,69 %
10.03.2017 03:00 6,2 C 86 % 1017,6 hPa 0,0 l/m 13,3 km/h (3 Bft) W 0,00 h 0,025 mm 0,0 UV-I 0 W/m 4,0 C 1,5 C 23,8 km/h (4 Bft) 98,54 %
10.03.2017 04:00 5,7 C 84 % 1018,3 hPa 0,0 l/m 14,0 km/h (3 Bft) W-SW 0,00 h 0,026 mm 0,0 UV-I 0 W/m 3,2 C 0,6 C 24,5 km/h (4 Bft) 96,92 %
10.03.2017 05:00 5,5 C 80 % 1019,0 hPa 0,2 l/m 16,1 km/h (3 Bft) W 0,00 h 0,025 mm 0,0 UV-I 0 W/m 2,4 C -0,7 C 27,1 km/h (4 Bft) 97,44 %
10.03.2017 06:00 5,3 C 83 % 1019,4 hPa 0,0 l/m 20,8 km/h (4 Bft) W-SW 0,03 h 0,026 mm 0,0 UV-I 10 W/m 2,6 C -3,0 C 31,7 km/h (5 Bft) 93,31 %
10.03.2017 07:00 5,2 C 82 % 1019,9 hPa 0,0 l/m 19,0 km/h (3 Bft) W 0,00 h 0,025 mm 0,0 UV-I 36 W/m 2,4 C -2,4 C 30,9 km/h (5 Bft) 96,61 %
10.03.2017 08:00 5,3 C 83 % 1020,5 hPa 0,0 l/m 16,5 km/h (3 Bft) W 0,00 h 0,051 mm 0,0 UV-I 64 W/m 2,6 C -1,0 C 28,7 km/h (4 Bft) 97,27 %
10.03.2017 09:00 5,6 C 81 % 1021,1 hPa 0,0 l/m 18,5 km/h (3 Bft) W 0,00 h 0,051 mm 0,4 UV-I 122 W/m 2,6 C -1,6 C 33,7 km/h (5 Bft) 97,31 %
10.03.2017 10:00 5,5 C 80 % 1021,5 hPa 0,0 l/m 18,6 km/h (3 Bft) W 0,00 h 0,076 mm 0,6 UV-I 141 W/m 2,3 C -1,7 C 31,3 km/h (5 Bft) 95,09 %
10.03.2017 11:00 6,0 C 74 % 1021,9 hPa 0,0 l/m 19,9 km/h (4 Bft) W 0,00 h 0,101 mm 0,5 UV-I 109 W/m 1,6 C -1,7 C 34,9 km/h (5 Bft) 95,07 %
10.03.2017 12:00 6,1 C 68 % 1022,4 hPa 0,0 l/m 18,5 km/h (3 Bft) W 0,00 h 0,102 mm 0,5 UV-I 107 W/m 0,7 C -1,0 C 32,0 km/h (5 Bft) 95,87 %
10.03.2017 13:00 6,6 C 66 % 1022,1 hPa 0,0 l/m 18,9 km/h (3 Bft) W 0,00 h 0,102 mm 0,8 UV-I 219 W/m 0,7 C -0,5 C 32,6 km/h (5 Bft) 97,41 %
10.03.2017 14:00 6,8 C 65 % 1022,5 hPa 0,0 l/m 18,8 km/h (3 Bft) W 0,00 h 0,152 mm 0,4 UV-I 150 W/m 0,7 C -0,3 C 32,2 km/h (5 Bft) 95,40 %
10.03.2017 15:00 7,0 C 62 % 1022,6 hPa 0,0 l/m 17,3 km/h (3 Bft) W-SW 0,00 h 0,127 mm 0,0 UV-I 101 W/m 0,3 C 0,5 C 29,5 km/h (5 Bft) 94,57 %
10.03.2017 16:00 6,9 C 62 % 1023,1 hPa 0,0 l/m 14,5 km/h (3 Bft) W 0,00 h 0,102 mm 0,0 UV-I 58 W/m 0,1 C 1,7 C 24,5 km/h (4 Bft) 95,81 %
10.03.2017 17:00 6,6 C 64 % 1023,6 hPa 0,0 l/m 12,9 km/h (3 Bft) W-SW 0,00 h 0,076 mm 0,0 UV-I 20 W/m 0,4 C 2,2 C 21,2 km/h (4 Bft) 98,12 %
10.03.2017 18:00 6,4 C 65 % 1024,3 hPa 0,0 l/m 10,3 km/h (2 Bft) W 0,00 h 0,051 mm 0,0 UV-I 4 W/m 0,3 C 3,4 C 16,7 km/h (3 Bft) 97,53 %
10.03.2017 19:00 6,0 C 68 % 1025,0 hPa 0,0 l/m 8,1 km/h (2 Bft) W 0,00 h 0,025 mm 0,0 UV-I 0 W/m 0,5 C 4,6 C 12,6 km/h (3 Bft) 94,82 %
10.03.2017 20:00 5,7 C 70 % 1025,5 hPa 0,0 l/m 8,8 km/h (2 Bft) W 0,00 h 0,025 mm 0,0 UV-I 0 W/m 0,7 C 3,8 C 13,4 km/h (3 Bft) 95,05 %
10.03.2017 21:00 5,4 C 72 % 1025,8 hPa 0,0 l/m 6,0 km/h (2 Bft) W 0,00 h 0,026 mm 0,0 UV-I 0 W/m 0,8 C 5,1 C 10,5 km/h (2 Bft) 96,37 %
10.03.2017 22:00 5,0 C 75 % 1025,9 hPa 0,0 l/m 6,4 km/h (2 Bft) W-SW 0,00 h 0,025 mm 0,0 UV-I 0 W/m 0,9 C 4,6 C 9,6 km/h (2 Bft) 97,23 %
10.03.2017 23:00 4,7 C 77 % 1026,0 hPa 0,0 l/m 5,9 km/h (2 Bft) W 0,00 h 0,026 mm 0,0 UV-I 0 W/m 1,0 C 4,6 C 9,0 km/h (2 Bft) 96,88 %
11.03.2017 00:00 3,7 C 81 % 1025,9 hPa 0,0 l/m 7,3 km/h (2 Bft) SW 0,00 h 0,000 mm 0,0 UV-I 0 W/m 0,7 C 2,8 C 10,6 km/h (2 Bft) 94,57 %
11.03.2017 01:00 3,1 C 84 % 1026,3 hPa 0,0 l/m 6,1 km/h (2 Bft) W-SW 0,00 h 0,025 mm 0,0 UV-I 0 W/m 0,7 C 2,0 C 10,3 km/h (2 Bft) 96,51 %
11.03.2017 02:00 1,7 C 88 % 1026,1 hPa 0,0 l/m 2,2 km/h (1 Bft) W-SW 0,00 h 0,000 mm 0,0 UV-I 0 W/m -0,1 C 1,7 C 3,9 km/h (1 Bft) 98,06 %
11.03.2017 03:00 1,2 C 89 % 1026,1 hPa 0,0 l/m 2,6 km/h (1 Bft) S 0,00 h 0,000 mm 0,0 UV-I 0 W/m -0,4 C 1,2 C 5,3 km/h (1 Bft) 96,59 %
11.03.2017 04:00 1,1 C 90 % 1025,9 hPa 0,0 l/m 4,0 km/h (1 Bft) S-SW 0,00 h 0,000 mm 0,0 UV-I 0 W/m -0,3 C 1,1 C 6,7 km/h (2 Bft) 95,42 %
11.03.2017 05:00 0,4 C 92 % 1025,7 hPa 0,0 l/m 3,0 km/h (1 Bft) S-SW 0,00 h 0,000 mm 0,0 UV-I 0 W/m -0,8 C 0,4 C 5,2 km/h (1 Bft) 94,91 %
11.03.2017 06:00 0,1 C 92 % 1025,7 hPa 0,0 l/m 2,8 km/h (1 Bft) S-SW 0,40 h 0,000 mm 0,0 UV-I 24 W/m -1,0 C 0,1 C 4,5 km/h (1 Bft) 97,56 %
11.03.2017 07:00 1,1 C 91 % 1025,8 hPa 0,0 l/m 2,7 km/h (1 Bft) S-SW 1,00 h 0,000 mm 0,0 UV-I 145 W/m -0,2 C 1,1 C 4,6 km/h (1 Bft) 96,59 %
11.03.2017 08:00 3,5 C 84 % 1025,8 hPa 0,0 l/m 3,4 km/h (1 Bft) SW 1,00 h 0,051 mm 0,6 UV-I 310 W/m 1,0 C 3,5 C 5,4 km/h (1 Bft) 95,03 %
11.03.2017 09:00 5,2 C 78 % 1025,4 hPa 0,0 l/m 2,3 km/h (1 Bft) SW 1,00 h 0,127 mm 1,0 UV-I 463 W/m 1,6 C 5,2 C 5,0 km/h (1 Bft) 94,93 %
11.03.2017 10:00 6,8 C 69 % 1024,8 hPa 0,0 l/m 2,3 km/h (1 Bft) S-SW 1,00 h 0,178 mm 1,6 UV-I 580 W/m 1,4 C 6,8 C 5,0 km/h (1 Bft) 97,04 %
11.03.2017 11:00 8,1 C 56 % 1024,1 hPa 0,0 l/m 4,1 km/h (1 Bft) O-NO 1,00 h 0,254 mm 2,1 UV-I 647 W/m -0,1 C 8,0 C 7,8 km/h (2 Bft) 96,73 %
11.03.2017 12:00 8,6 C 52 % 1023,4 hPa 0,0 l/m 3,2 km/h (1 Bft) O-NO 1,00 h 0,305 mm 2,2 UV-I 656 W/m -0,7 C 8,5 C 6,5 km/h (2 Bft) 95,77 %
11.03.2017 13:00 9,2 C 52 % 1022,6 hPa 0,0 l/m 3,3 km/h (1 Bft) N-NO 1,00 h 0,305 mm 1,9 UV-I 589 W/m -0,1 C 9,0 C 7,0 km/h (2 Bft) 97,68 %
11.03.2017 14:00 9,2 C 49 % 1021,6 hPa 0,0 l/m 5,1 km/h (1 Bft) NO 0,80 h 0,279 mm 1,2 UV-I 391 W/m -0,9 C 8,7 C 9,8 km/h (2 Bft) 96,29 %
11.03.2017 15:00 9,0 C 52 % 1021,2 hPa 0,0 l/m 4,2 km/h (1 Bft) N-NO 0,63 h 0,203 mm 0,7 UV-I 261 W/m -0,2 C 8,8 C 8,2 km/h (2 Bft) 98,07 %
11.03.2017 16:00 8,6 C 54 % 1021,0 hPa 0,0 l/m 1,1 km/h (1 Bft) N-NO 0,00 h 0,127 mm 0,0 UV-I 108 W/m -0,2 C 8,6 C 2,9 km/h (1 Bft) 95,41 %
11.03.2017 17:00 7,8 C 60 % 1020,7 hPa 0,0 l/m 3,6 km/h (1 Bft) O 0,03 h 0,051 mm 0,0 UV-I 29 W/m 0,6 C 7,8 C 5,4 km/h (1 Bft) 95,60 %
11.03.2017 18:00 6,9 C 68 % 1020,6 hPa 0,0 l/m 3,1 km/h (1 Bft) O-SO 0,00 h 0,025 mm 0,0 UV-I 5 W/m 1,3 C 6,9 C 4,5 km/h (1 Bft) 95,84 %
11.03.2017 19:00 6,0 C 78 % 1020,6 hPa 0,0 l/m 1,8 km/h (1 Bft) O 0,00 h 0,026 mm 0,0 UV-I 0 W/m 2,4 C 6,0 C 3,1 km/h (1 Bft) 96,71 %
11.03.2017 20:00 5,8 C 76 % 1020,4 hPa 0,0 l/m 1,6 km/h (1 Bft) O 0,00 h 0,000 mm 0,0 UV-I 0 W/m 1,9 C 5,8 C 2,6 km/h (1 Bft) 96,65 %
11.03.2017 21:00 5,4 C 79 % 1020,5 hPa 0,0 l/m 4,0 km/h (1 Bft) NO 0,00 h 0,000 mm 0,0 UV-I 0 W/m 2,1 C 5,4 C 5,7 km/h (1 Bft) 95,51 %
11.03.2017 22:00 4,3 C 81 % 1020,6 hPa 0,0 l/m 1,9 km/h (1 Bft) N-NO 0,00 h 0,000 mm 0,0 UV-I 0 W/m 1,2 C 4,3 C 3,2 km/h (1 Bft) 98,61 %
11.03.2017 23:00 3,4 C 82 % 1020,4 hPa 0,0 l/m 3,0 km/h (1 Bft) O-NO 0,00 h 0,000 mm 0,0 UV-I 0 W/m 0,6 C 3,4 C 5,0 km/h (1 Bft) 96,74 %
12.03.2017 00:00 3,1 C 83 % 1020,0 hPa 0,0 l/m 3,9 km/h (1 Bft) O-NO 0,00 h 0,000 mm 0,0 UV-I 0 W/m 0,5 C 3,1 C 5,5 km/h (1 Bft) 98,03 %
12.03.2017 01:00 2,1 C 86 % 1019,7 hPa 0,0 l/m 2,4 km/h (1 Bft) O-NO 0,00 h 0,000 mm 0,0 UV-I 0 W/m 0,0 C 2,1 C 3,6 km/h (1 Bft) 94,91 %
12.03.2017 02:00 1,3 C 88 % 1019,3 hPa 0,0 l/m 1,8 km/h (1 Bft) O-NO 0,00 h 0,000 mm 0,0 UV-I 0 W/m -0,5 C 1,3 C 3,0 km/h (1 Bft) 98,47 %
12.03.2017 03:00 0,4 C 91 % 1018,9 hPa 0,0 l/m 1,9 km/h (1 Bft) O-NO 0,00 h 0,000 mm 0,0 UV-I 0 W/m -0,9 C 0,4 C 2,7 km/h (1 Bft) 98,76 %
12.03.2017 04:00 0,5 C 90 % 1018,8 hPa 0,0 l/m 3,1 km/h (1 Bft) O-NO 0,00 h 0,000 mm 0,0 UV-I 0 W/m -0,9 C 0,5 C 4,7 km/h (1 Bft) 97,34 %
12.03.2017 05:00 0,4 C 89 % 1018,7 hPa 0,0 l/m 5,9 km/h (2 Bft) O-NO 0,00 h 0,000 mm 0,0 UV-I 0 W/m -1,2 C -0,8 C 9,3 km/h (2 Bft) 97,11 %
12.03.2017 06:00 -0,5 C 92 % 1018,8 hPa 0,0 l/m 2,9 km/h (1 Bft) NO 0,30 h 0,000 mm 0,0 UV-I 21 W/m -1,7 C -0,5 C 4,6 km/h (1 Bft) 96,23 %
12.03.2017 07:00 0,6 C 92 % 1018,9 hPa 0,0 l/m 6,4 km/h (2 Bft) O-NO 1,00 h 0,000 mm 0,0 UV-I 142 W/m -0,5 C -0,5 C 9,7 km/h (2 Bft) 97,48 %
12.03.2017 08:00 2,5 C 89 % 1019,1 hPa 0,0 l/m 13,8 km/h (3 Bft) O-NO 1,00 h 0,051 mm 0,6 UV-I 308 W/m 0,9 C -3,3 C 19,7 km/h (3 Bft) 96,19 %
12.03.2017 09:00 4,2 C 80 % 1019,0 hPa 0,0 l/m 17,3 km/h (3 Bft) O-NO 1,00 h 0,127 mm 1,0 UV-I 465 W/m 1,0 C -3,0 C 23,8 km/h (4 Bft) 98,69 %
12.03.2017 10:00 5,6 C 77 % 1018,9 hPa 0,0 l/m 16,6 km/h (3 Bft) O-NO 1,00 h 0,203 mm 1,6 UV-I 585 W/m 1,8 C -0,9 C 22,8 km/h (4 Bft) 96,21 %
12.03.2017 11:00 6,7 C 69 % 1018,7 hPa 0,0 l/m 19,2 km/h (3 Bft) NO 1,00 h 0,254 mm 2,1 UV-I 659 W/m 1,4 C -0,7 C 26,7 km/h (4 Bft) 96,01 %
12.03.2017 12:00 7,4 C 66 % 1018,3 hPa 0,0 l/m 19,1 km/h (3 Bft) O-NO 1,00 h 0,305 mm 2,2 UV-I 701 W/m 1,4 C 0,3 C 26,2 km/h (4 Bft) 96,07 %
12.03.2017 13:00 7,3 C 63 % 1017,8 hPa 0,0 l/m 20,0 km/h (4 Bft) O-NO 0,97 h 0,355 mm 1,9 UV-I 613 W/m 0,8 C -0,2 C 27,2 km/h (4 Bft) 95,66 %
12.03.2017 14:00 7,4 C 59 % 1017,5 hPa 0,0 l/m 19,7 km/h (3 Bft) NO 1,00 h 0,331 mm 1,4 UV-I 528 W/m -0,1 C 0,1 C 27,3 km/h (4 Bft) 94,54 %
12.03.2017 15:00 7,3 C 55 % 1017,1 hPa 0,0 l/m 17,9 km/h (3 Bft) O-NO 1,02 h 0,304 mm 0,8 UV-I 372 W/m -1,1 C 0,7 C 25,7 km/h (4 Bft) 96,17 %
12.03.2017 16:00 6,6 C 58 % 1016,9 hPa 0,0 l/m 19,6 km/h (3 Bft) O-NO 1,00 h 0,229 mm 0,4 UV-I 202 W/m -0,9 C -0,9 C 27,0 km/h (4 Bft) 97,64 %
12.03.2017 17:00 5,7 C 61 % 1017,0 hPa 0,0 l/m 17,3 km/h (3 Bft) NO 0,82 h 0,152 mm 0,0 UV-I 54 W/m -1,3 C -1,0 C 24,2 km/h (4 Bft) 98,96 %
12.03.2017 18:00 4,6 C 65 % 1017,4 hPa 0,0 l/m 15,9 km/h (3 Bft) NO 0,00 h 0,077 mm 0,0 UV-I 6 W/m -1,4 C -1,9 C 21,4 km/h (4 Bft) 95,90 %
12.03.2017 19:00 3,5 C 70 % 1017,9 hPa 0,0 l/m 13,5 km/h (3 Bft) NO 0,00 h 0,050 mm 0,0 UV-I 0 W/m -1,4 C -1,8 C 18,9 km/h (3 Bft) 97,42 %
12.03.2017 20:00 2,5 C 74 % 1018,3 hPa 0,0 l/m 9,3 km/h (2 Bft) NO 0,00 h 0,026 mm 0,0 UV-I 0 W/m -1,7 C -0,1 C 14,2 km/h (3 Bft) 95,47 %
12.03.2017 21:00 1,8 C 74 % 1018,7 hPa 0,0 l/m 9,3 km/h (2 Bft) NO 0,00 h 0,025 mm 0,0 UV-I 0 W/m -2,4 C -0,8 C 14,6 km/h (3 Bft) 97,38 %
12.03.2017 22:00 1,1 C 76 % 1019,1 hPa 0,0 l/m 7,3 km/h (2 Bft) NO 0,00 h 0,026 mm 0,0 UV-I 0 W/m -2,7 C 0,2 C 11,1 km/h (2 Bft) 97,19 %
12.03.2017 23:00 0,6 C 78 % 1019,4 hPa 0,0 l/m 5,8 km/h (1 Bft) NO 0,00 h 0,025 mm 0,0 UV-I 0 W/m -2,8 C 0,3 C 8,5 km/h (2 Bft) 97,51 %
Min-Datum _ 12.03.17 11.03.17 06.03.17 - 06.03.17 - - - - - 12.03.17 06.03.17 06.03.17 08.03.17
_ Min-Zeit 06:56 14:34 19:54 - 20:46 - - - - - 23:18 00:02 21:54 00:02
Minimum _ -0,7 C 44 % 999,8 hPa - 0,0 km/h (0 Bft) - - - - - -2,9 C -6,2 C 0,0 km/h (0 Bft) 22,22 %
Max-Datum _ 09.03.17 09.03.17 11.03.17 09.03.17 06.03.17 - 06.03.17 12.03.17 11.03.17 06.03.17 09.03.17 09.03.17 10.03.17 06.03.17
_ Max-Zeit 13:20 09:56 01:28 22:34 11:20 - 12:16 13:00 12:13 12:52 12:46 13:10 13:16 00:02
Maximum _ 10,5 C 98 % 1026,5 hPa 3,6 l/m 33,8 km/h
W-SW (5 Bft)
- 0,07 h 0,355 mm 2,3 UV-I 772 W/m 9,0 C 10,4 C 53,1 km/h
W (7 Bft)
100,00 %
Durchschnitt _ 5,4 C 80 % 1016,9 hPa #21,0 l/m 9,5 km/h (2 Bft) W-SW #32:58 h #10,795 mm 1,0 UV-I 206 W/m 2,1 C 2,6 C 15,0 km/h (3 Bft) 96,58 %